METAR and TAF information
METAR FOR LGKV
ADDS - METARS form results

(1808 UTC 23 February 2018)
Data provider http://aviationweather.gov/adds/metars/
 
METAR text: LGKV 231750Z 07008KT 9999 FEW030 BKN060 09/04 Q1014
Conditions at: LGKV (KAVALA/CHRISOUPO, GR) observed 1750 UTC 23 February 2018
Temperature: 9.0°C (48°F)
Dewpoint: 4.0°C (39°F) [RH = 71%]
Pressure (altimeter): 29.94 inches Hg (1014.0 mb)
Winds: from the ENE (70 degrees) at 9 MPH (8 knots; 4.2 m/s)
Visibility: 6 or more miles (10+ km)
Ceiling: 6000 feet AGL
Clouds: few clouds at 3000 feet AGL
broken clouds at 6000 feet AGL
Weather: no significant weather observed at this time

METAR text: LGKV 231720Z 07010KT 9999 FEW030 BKN060 09/03 Q1014
Conditions at: LGKV (KAVALA/CHRISOUPO, GR) observed 1720 UTC 23 February 2018
Temperature: 9.0°C (48°F)
Dewpoint: 3.0°C (37°F) [RH = 66%]
Pressure (altimeter): 29.94 inches Hg (1014.0 mb)
Winds: from the ENE (70 degrees) at 12 MPH (10 knots; 5.2 m/s)
Visibility: 6 or more miles (10+ km)
Ceiling: 6000 feet AGL
Clouds: few clouds at 3000 feet AGL
broken clouds at 6000 feet AGL
Weather: no significant weather observed at this time

Forecast for: LGKV (KAVALA/CHRISOUPO, GR)
Text: TAF LGKV 231700Z 2318/2403 08013KT 9999 FEW025 BKN060
Forecast period: 1800 UTC 23 February 2018 to 0300 UTC 24 February 2018
Forecast type: FROM: standard forecast or significant change
Winds: from the E (80 degrees) at 15 MPH (13 knots; 6.8 m/s)
Visibility: 6 or more miles (10+ km)
Ceiling: 6000 feet AGL
Clouds: few clouds at 2500 feet AGL
broken clouds at 6000 feet AGL
Weather: no significant weather forecast for this period

 Airport map

 Runway information
Runway 05R Runway length 9844 ft Runway width 148 ft
Runway elevation 11 ft Runway displaced threshold 0 ft Runway heading 55
Runway 23L Runway length 9844 ft Runway width 148 ft
Runway elevation 18 ft Runway displaced threshold 0 ft Runway heading 235

 Airport frequencies
Type A/G Name RDO Frequency 563.7 MHZ
Type APP Name KAVALA APP Frequency 122.1 MHZ
Type TWR Name TWR Frequency 118.4 MHZ

 Airport & nearby NAVAIDS
Type NDB Name Chrisoupolis Frequency 327 KHZ
Type VOR-DME Name Kavala Frequency 108800 KHZ
Type TACAN Name Kavala Frequency 114300 KHZ




Powered by VAM | Theme by g1g@byt3



Copyright © 2016 - 2018 Olympic Airlines Virtual. All rights reserved.

Olympic Airlines, Olympic Airways etc. are registered trademarks of
their respective owners and are hereby used only for educational
purposes.
Legal disclaimer